Terminal Aerodrome Forecast
Issued by NWS

Home | Current Version | Previous Version | Graphics & Text | Print | Product List | Glossary On
Versions: 1 2 3 4 5 6 7 8 9 10 11 12 13 14 15 16 17 18 19 20 21
000
FTUS43 KICT 241722
TAFSLN
TAF
KSLN 241722Z 2418/2518 18018G27KT P6SM SCT030
     FM242100 17012KT P6SM VCTS SCT030 SCT200CB
     FM242300 09009KT P6SM SCT020 BKN035
     FM250100 01015KT P6SM BKN035
     FM250300 35017G25KT P6SM VCSH SCT020 BKN035
     FM250500 35016G24KT P6SM VCSH BKN015
     FM250900 33016G24KT P6SM OVC015=

USA.gov is the U.S. government's official web portal to all federal, state and local government web resources and services.